Terminal Aerodrome Forecast
Issued by NWS

Home | Current Version | Previous Version | Text Only | Print | Product List | Glossary On
Versions: 1 2 3 4 5 6 7 8 9 10 11 12 13 14 15 16 17 18 19 20
000
FTUS44 KBMX 270300 AAA
TAFEET
TAF AMD
KEET 270300Z 2703/2724 36008G20KT P6SM SKC
     FM270600 01004KT P6SM SCT250
     FM271500 03006KT P6SM SCT250=

USA.gov is the U.S. government's official web portal to all federal, state and local government web resources and services.